createdAt,value
2023-03-24T00:00:14.084Z,2.92
2023-03-24T00:02:16.423Z,3.38
2023-03-24T00:04:18.317Z,3.25
2023-03-24T00:06:22.727Z,2.95
2023-03-24T00:08:24.883Z,3.80
2023-03-24T00:10:30.646Z,3.13
2023-03-24T00:12:33.013Z,3.60
2023-03-24T00:14:35.799Z,2.90
2023-03-24T00:16:38.513Z,3.58
2023-03-24T00:18:40.561Z,3.25
2023-03-24T00:20:42.482Z,3.03
2023-03-24T00:22:49.824Z,3.30
2023-03-24T00:24:51.459Z,3.17
2023-03-24T00:26:57.810Z,2.63
2023-03-24T00:28:59.675Z,3.13
2023-03-24T00:31:04.492Z,3.33
2023-03-24T00:33:06.286Z,4.00
2023-03-24T00:35:09.837Z,4.22
2023-03-24T00:37:11.550Z,3.58
2023-03-24T00:39:13.259Z,3.72
2023-03-24T00:41:17.938Z,3.83
2023-03-24T00:43:20.003Z,3.97
2023-03-24T00:45:25.254Z,2.88
2023-03-24T00:47:26.922Z,2.92
2023-03-24T00:49:45.144Z,3.92
2023-03-24T00:51:46.894Z,3.90
2023-03-24T00:53:48.647Z,2.97
2023-03-24T00:55:53.908Z,4.07
2023-03-24T00:57:56.016Z,4.55
2023-03-24T00:59:57.850Z,3.22
2023-03-24T01:01:59.680Z,3.95
2023-03-24T01:04:02.458Z,3.20
2023-03-24T01:06:05.110Z,3.05
2023-03-24T01:08:08.142Z,3.85
2023-03-24T01:10:13.301Z,3.90
2023-03-24T01:12:14.964Z,3.60
2023-03-24T01:14:16.671Z,3.65
2023-03-24T01:16:19.004Z,4.07
2023-03-24T01:18:21.454Z,4.00
2023-03-24T01:20:24.475Z,3.88
2023-03-24T01:22:30.719Z,4.50
2023-03-24T01:24:32.486Z,4.28
2023-03-24T01:26:34.683Z,3.10
2023-03-24T01:28:41.038Z,3.85
2023-03-24T01:30:43.476Z,3.25
2023-03-24T01:32:45.553Z,4.75
2023-03-24T01:34:47.205Z,3.55
2023-03-24T01:36:48.914Z,3.28
2023-03-24T01:38:51.062Z,3.50
2023-03-24T01:40:53.595Z,3.10
2023-03-24T01:42:56.343Z,3.92
2023-03-24T01:45:01.420Z,3.50
2023-03-24T01:47:06.674Z,5.22
2023-03-24T01:49:08.656Z,3.80
2023-03-24T01:51:16.397Z,3.05
2023-03-24T01:53:18.556Z,4.80
2023-03-24T01:55:20.406Z,3.97
2023-03-24T01:57:28.430Z,3.20
2023-03-24T01:59:32.030Z,3.40
2023-03-24T02:01:33.930Z,3.70
2023-03-24T02:03:38.899Z,3.08
2023-03-24T02:05:41.712Z,3.47
2023-03-24T02:07:53.480Z,3.80
2023-03-24T02:09:55.299Z,3.47
2023-03-24T02:11:57.072Z,3.22
2023-03-24T02:13:59.550Z,3.90
2023-03-24T02:16:24.483Z,3.30
2023-03-24T02:18:30.105Z,3.25
2023-03-24T02:20:52.115Z,4.18
2023-03-24T02:23:31.266Z,3.65
2023-03-24T02:25:41.743Z,4.50
2023-03-24T02:27:53.990Z,3.55
2023-03-24T02:30:15.450Z,3.53
2023-03-24T02:32:33.105Z,3.65
2023-03-24T02:34:47.100Z,3.65
2023-03-24T02:37:02.519Z,3.97
2023-03-24T02:39:25.714Z,4.00
2023-03-24T02:41:33.865Z,4.43
2023-03-24T02:43:44.370Z,4.47
2023-03-24T02:46:14.821Z,4.18
2023-03-24T02:48:22.380Z,4.30
2023-03-24T02:50:32.473Z,3.80
2023-03-24T02:52:39.878Z,4.03
2023-03-24T02:54:50.556Z,4.90
2023-03-24T02:57:08.870Z,4.55
2023-03-24T02:59:22.489Z,4.80
2023-03-24T03:01:31.721Z,5.80
2023-03-24T03:03:41.710Z,4.70
2023-03-24T03:05:51.537Z,5.32
2023-03-24T03:07:56.238Z,6.05
2023-03-24T03:10:01.063Z,5.95
2023-03-24T03:12:05.030Z,5.57
2023-03-24T03:14:10.872Z,6.22
2023-03-24T03:16:38.493Z,6.13
2023-03-24T03:18:43.975Z,6.07
2023-03-24T03:20:53.287Z,5.90
2023-03-24T03:23:00.868Z,5.80
2023-03-24T03:25:03.634Z,6.68
2023-03-24T03:27:09.200Z,5.90
2023-03-24T03:29:22.155Z,6.15
2023-03-24T03:31:30.763Z,6.45
2023-03-24T03:33:39.398Z,6.88
2023-03-24T03:35:53.344Z,7.45
2023-03-24T03:38:11.106Z,7.30
2023-03-24T03:40:43.630Z,6.78
2023-03-24T03:42:45.500Z,7.65
2023-03-24T03:44:47.290Z,7.57
2023-03-24T03:46:48.986Z,7.60
2023-03-24T03:48:51.225Z,7.28
2023-03-24T03:51:06.352Z,8.30
2023-03-24T03:53:15.617Z,7.63
2023-03-24T03:55:17.577Z,7.10
2023-03-24T03:57:19.820Z,7.03
2023-03-24T03:59:26.190Z,7.72
2023-03-24T04:01:29.957Z,6.13
2023-03-24T04:03:53.710Z,7.30
2023-03-24T04:06:01.906Z,7.15
2023-03-24T04:08:26.508Z,7.05
2023-03-24T04:11:00.518Z,8.77
2023-03-24T04:13:31.342Z,7.20
2023-03-24T04:16:21.165Z,7.75
2023-03-24T04:19:01.512Z,7.97
2023-03-24T04:21:13.086Z,8.05
2023-03-24T04:23:26.774Z,5.72
2023-03-24T04:25:50.007Z,6.43
2023-03-24T04:28:04.666Z,6.97
2023-03-24T04:30:10.324Z,7.30
2023-03-24T04:32:24.609Z,7.78
2023-03-24T04:34:34.203Z,8.10
2023-03-24T04:36:42.747Z,7.75
2023-03-24T04:38:48.967Z,7.82
2023-03-24T04:40:52.225Z,8.27
2023-03-24T04:42:55.949Z,8.77
2023-03-24T04:44:58.174Z,8.07
2023-03-24T04:47:03.478Z,7.78
2023-03-24T04:49:10.538Z,8.07
2023-03-24T04:51:12.762Z,7.53
2023-03-24T04:53:14.810Z,8.23
2023-03-24T04:55:32.410Z,6.90
2023-03-24T04:57:34.068Z,8.15
2023-03-24T04:59:35.798Z,7.35
2023-03-24T05:01:37.747Z,7.78
2023-03-24T05:03:53.400Z,7.50
2023-03-24T05:05:55.165Z,6.80
2023-03-24T05:08:00.365Z,5.85
2023-03-24T05:10:02.127Z,5.90
2023-03-24T05:12:04.062Z,6.63
2023-03-24T05:14:05.925Z,6.00
2023-03-24T05:16:08.313Z,6.30
2023-03-24T05:18:10.447Z,6.28
2023-03-24T05:20:12.586Z,5.95
2023-03-24T05:22:14.480Z,6.55
2023-03-24T05:24:16.498Z,5.78
2023-03-24T05:26:18.389Z,5.13
2023-03-24T05:28:20.526Z,5.63
2023-03-24T05:30:22.226Z,5.88
2023-03-24T05:32:24.290Z,6.07
2023-03-24T05:34:26.030Z,6.72
2023-03-24T05:36:27.755Z,5.00
2023-03-24T05:38:30.243Z,4.95
2023-03-24T05:40:31.931Z,4.95
2023-03-24T05:42:33.634Z,5.25
2023-03-24T05:44:35.468Z,5.72
2023-03-24T05:46:38.354Z,5.63
2023-03-24T05:48:40.146Z,7.10
2023-03-24T05:50:41.884Z,6.28
2023-03-24T05:52:43.617Z,5.18
2023-03-24T05:54:46.064Z,5.97
2023-03-24T05:56:50.635Z,6.78
2023-03-24T05:58:58.338Z,6.90
2023-03-24T06:01:10.127Z,6.05
2023-03-24T06:03:15.982Z,6.35
2023-03-24T06:05:21.477Z,6.70
2023-03-24T06:07:28.085Z,6.25
2023-03-24T06:09:40.947Z,7.10
2023-03-24T06:11:48.282Z,6.55
2023-03-24T06:13:50.523Z,6.70
2023-03-24T06:15:54.747Z,6.63
2023-03-24T06:18:27.731Z,6.25
2023-03-24T06:20:57.056Z,6.65
2023-03-24T06:23:12.605Z,6.68
2023-03-24T06:25:16.922Z,7.07
2023-03-24T06:27:21.719Z,6.53
2023-03-24T06:29:23.426Z,6.57
2023-03-24T06:31:25.531Z,6.70
2023-03-24T06:33:27.241Z,5.25
2023-03-24T06:35:29.041Z,6.32
2023-03-24T06:37:33.873Z,6.35
2023-03-24T06:39:35.582Z,4.82
2023-03-24T06:41:37.298Z,5.38
2023-03-24T06:43:39.038Z,5.40
2023-03-24T06:45:40.805Z,4.85
2023-03-24T06:47:42.617Z,4.22
2023-03-24T06:49:44.697Z,5.32
2023-03-24T06:51:46.571Z,4.47
2023-03-24T06:53:48.327Z,4.88
2023-03-24T06:55:50.867Z,4.60
2023-03-24T06:57:52.733Z,4.65
2023-03-24T06:59:54.948Z,4.47
2023-03-24T07:01:56.617Z,5.25
2023-03-24T07:03:58.458Z,4.55
2023-03-24T07:06:00.742Z,5.38
2023-03-24T07:10:07.634Z,4.70
2023-03-24T07:12:09.422Z,5.40
2023-03-24T07:14:11.280Z,5.70
2023-03-24T07:16:13.101Z,5.90
2023-03-24T07:18:14.948Z,5.57
2023-03-24T07:20:16.634Z,4.70
2023-03-24T07:22:18.333Z,5.50
2023-03-24T07:24:20.583Z,5.95
2023-03-24T07:26:22.511Z,5.57
2023-03-24T07:28:24.725Z,5.55
2023-03-24T07:30:37.365Z,6.13
2023-03-24T07:32:43.037Z,5.28
2023-03-24T07:34:46.414Z,6.18
2023-03-24T07:36:48.449Z,5.53
2023-03-24T07:38:50.588Z,4.95
2023-03-24T07:40:52.973Z,5.53
2023-03-24T07:42:55.064Z,4.93
2023-03-24T07:44:57.245Z,4.72
2023-03-24T07:47:13.119Z,4.65
2023-03-24T07:49:19.374Z,4.63
2023-03-24T07:51:22.241Z,4.53
2023-03-24T07:53:24.154Z,3.92
2023-03-24T07:55:26.879Z,5.22
2023-03-24T07:57:28.964Z,4.00
2023-03-24T07:59:31.458Z,3.35
2023-03-24T08:01:38.791Z,3.72
2023-03-24T08:03:42.177Z,3.33
2023-03-24T08:05:44.577Z,3.63
2023-03-24T08:07:53.823Z,4.03
2023-03-24T08:10:09.037Z,3.30
2023-03-24T08:12:19.955Z,4.45
2023-03-24T08:14:24.878Z,3.72
2023-03-24T08:16:28.307Z,3.80
2023-03-24T08:18:32.333Z,4.50
2023-03-24T08:20:34.505Z,4.75
2023-03-24T08:22:38.273Z,4.18
2023-03-24T08:24:42.256Z,4.00
2023-03-24T08:26:46.732Z,3.92
2023-03-24T08:28:49.721Z,4.00
2023-03-24T08:30:51.884Z,4.18
2023-03-24T08:32:59.707Z,2.72
2023-03-24T08:35:08.872Z,3.22
2023-03-24T08:37:12.349Z,3.13
2023-03-24T08:39:15.456Z,3.35
2023-03-24T08:41:17.763Z,3.53
2023-03-24T08:43:31.044Z,3.13
2023-03-24T08:45:33.033Z,2.80
2023-03-24T08:47:36.992Z,2.78
2023-03-24T08:49:39.060Z,2.85
2023-03-24T08:51:42.108Z,3.10
2023-03-24T08:53:44.621Z,2.55
2023-03-24T08:55:47.169Z,2.28
2023-03-24T08:57:51.350Z,2.50
2023-03-24T08:59:53.089Z,2.35
2023-03-24T09:01:59.845Z,2.08
2023-03-24T09:04:02.103Z,2.58
2023-03-24T09:06:13.619Z,1.98
2023-03-24T09:08:17.742Z,2.50
2023-03-24T09:10:23.812Z,2.45
2023-03-24T09:12:26.202Z,2.33
2023-03-24T09:14:28.751Z,2.50
2023-03-24T09:16:30.826Z,2.53
2023-03-24T09:18:33.031Z,2.90
2023-03-24T09:20:47.925Z,2.22
2023-03-24T09:22:49.953Z,2.67
2023-03-24T09:24:52.343Z,2.08
2023-03-24T09:27:00.548Z,2.72
2023-03-24T09:29:09.792Z,2.38
2023-03-24T09:31:12.279Z,2.60
2023-03-24T09:33:14.509Z,3.00
2023-03-24T09:35:16.679Z,2.42
2023-03-24T09:37:18.494Z,2.63
2023-03-24T09:39:20.551Z,2.83
2023-03-24T09:41:35.909Z,2.20
2023-03-24T09:43:51.364Z,2.38
2023-03-24T09:46:02.547Z,2.63
2023-03-24T09:48:35.940Z,2.40
2023-03-24T09:51:00.261Z,2.45
2023-03-24T09:53:41.176Z,1.95
2023-03-24T09:55:49.413Z,1.88
2023-03-24T09:57:54.457Z,1.55
2023-03-24T10:00:01.182Z,0.90
2023-03-24T10:02:19.734Z,1.05
2023-03-24T10:04:30.978Z,1.27
2023-03-24T10:06:44.370Z,1.02
2023-03-24T10:09:24.409Z,1.00
2023-03-24T10:11:40.716Z,0.95
2023-03-24T10:13:55.576Z,1.38
2023-03-24T10:16:19.342Z,1.17
2023-03-24T10:19:03.602Z,0.90
2023-03-24T10:21:22.795Z,0.85
2023-03-24T10:23:52.928Z,1.00
2023-03-24T10:26:23.191Z,0.73
2023-03-24T10:28:55.870Z,0.80
2023-03-24T10:31:02.193Z,1.13
2023-03-24T10:33:04.170Z,1.15
2023-03-24T10:35:10.061Z,1.00
2023-03-24T10:37:12.732Z,1.05
2023-03-24T10:39:20.913Z,1.20
2023-03-24T10:41:28.277Z,1.00
2023-03-24T10:43:30.305Z,1.52
2023-03-24T10:45:36.771Z,0.88
2023-03-24T10:47:38.598Z,1.00
2023-03-24T10:49:52.857Z,0.90
2023-03-24T10:52:02.291Z,0.93
2023-03-24T10:54:22.074Z,1.05
2023-03-24T10:56:40.425Z,0.80
2023-03-24T10:58:43.579Z,0.82
2023-03-24T11:00:45.736Z,1.00
2023-03-24T11:02:56.602Z,0.90
2023-03-24T11:05:02.412Z,1.00
2023-03-24T11:07:21.166Z,1.00
2023-03-24T11:09:22.988Z,1.08
2023-03-24T11:11:24.682Z,1.23
2023-03-24T11:13:32.912Z,1.15
2023-03-24T11:15:37.424Z,1.20
2023-03-24T11:17:39.255Z,1.42
2023-03-24T11:19:53.865Z,1.25
2023-03-24T11:22:01.799Z,0.80
2023-03-24T11:24:11.622Z,0.88
2023-03-24T11:26:19.166Z,1.10
2023-03-24T11:28:25.693Z,0.98
2023-03-24T11:30:34.512Z,1.00
2023-03-24T11:32:36.546Z,0.85
2023-03-24T11:34:42.204Z,0.98
2023-03-24T11:36:47.895Z,1.33
2023-03-24T11:39:04.391Z,1.40
2023-03-24T11:41:06.179Z,1.25
2023-03-24T11:43:20.868Z,1.27
2023-03-24T11:45:28.165Z,1.42
2023-03-24T11:47:32.245Z,2.25
2023-03-24T11:49:38.688Z,1.80
2023-03-24T11:51:42.829Z,1.60
2023-03-24T11:53:52.086Z,1.70
2023-03-24T11:55:57.607Z,1.55
2023-03-24T11:58:20.692Z,1.73
2023-03-24T12:00:28.453Z,1.50
2023-03-24T12:02:55.921Z,1.50
2023-03-24T12:05:12.887Z,1.42
2023-03-24T12:07:25.238Z,1.48
2023-03-24T12:09:52.132Z,1.40
2023-03-24T12:12:12.025Z,1.42
2023-03-24T12:14:20.967Z,1.58
2023-03-24T12:16:31.704Z,1.50
2023-03-24T12:18:48.165Z,1.23
2023-03-24T12:20:49.876Z,1.40
2023-03-24T12:23:22.465Z,1.42
2023-03-24T12:25:29.063Z,1.58
2023-03-24T12:27:52.538Z,2.05
2023-03-24T12:30:00.368Z,1.33
2023-03-24T12:32:29.901Z,1.17
2023-03-24T12:34:38.583Z,1.60
2023-03-24T12:36:58.788Z,2.25
2023-03-24T12:39:09.860Z,1.48
2023-03-24T12:41:32.305Z,1.80
2023-03-24T12:43:49.024Z,1.27
2023-03-24T12:45:56.875Z,1.58
2023-03-24T12:48:01.730Z,1.40
2023-03-24T12:50:20.046Z,1.58
2023-03-24T12:52:36.333Z,1.65
2023-03-24T12:54:56.395Z,1.58
2023-03-24T12:57:18.895Z,1.92
2023-03-24T12:59:27.260Z,1.60
2023-03-24T13:01:52.920Z,2.00
2023-03-24T13:04:00.813Z,2.05
2023-03-24T13:06:30.415Z,1.70
2023-03-24T13:08:32.599Z,1.33
2023-03-24T13:10:41.035Z,1.65
2023-03-24T13:13:16.574Z,1.63
2023-03-24T13:15:27.744Z,1.70
2023-03-24T13:17:53.106Z,1.10
2023-03-24T13:19:55.137Z,1.77
2023-03-24T13:21:57.375Z,1.10
2023-03-24T13:24:01.982Z,1.20
2023-03-24T13:26:18.872Z,1.00
2023-03-24T13:28:32.785Z,1.05
2023-03-24T13:30:37.112Z,0.98
2023-03-24T13:32:45.742Z,0.80
2023-03-24T13:34:53.668Z,0.93
2023-03-24T13:37:01.302Z,0.80
2023-03-24T13:39:06.507Z,1.15
2023-03-24T13:41:12.570Z,0.70
2023-03-24T13:43:38.568Z,1.35
2023-03-24T13:46:01.515Z,1.23
2023-03-24T13:48:25.756Z,1.38
2023-03-24T13:50:28.518Z,0.90
2023-03-24T13:52:37.045Z,1.00
2023-03-24T13:54:39.129Z,0.95
2023-03-24T13:56:47.949Z,1.10
2023-03-24T13:59:03.535Z,0.90
2023-03-24T14:01:17.149Z,1.00
2023-03-24T14:03:47.885Z,0.95
2023-03-24T14:06:06.945Z,1.50
2023-03-24T14:08:13.923Z,0.80
2023-03-24T14:10:20.811Z,1.05
2023-03-24T14:12:22.656Z,1.00
2023-03-24T14:14:26.195Z,1.05
2023-03-24T14:16:54.629Z,1.08
2023-03-24T14:19:28.919Z,0.68
2023-03-24T14:21:33.660Z,0.95
2023-03-24T14:23:49.471Z,1.00
2023-03-24T14:25:56.055Z,0.80
2023-03-24T14:28:23.290Z,0.90
2023-03-24T14:30:26.879Z,0.88
2023-03-24T14:32:28.770Z,1.90
2023-03-24T14:34:30.878Z,0.65
2023-03-24T14:36:40.182Z,0.90
2023-03-24T14:38:43.400Z,1.25
2023-03-24T14:40:48.290Z,0.90
2023-03-24T14:42:49.974Z,0.73
2023-03-24T14:44:53.585Z,0.88
2023-03-24T14:46:58.476Z,0.95
2023-03-24T14:49:27.420Z,1.48
2023-03-24T14:51:39.368Z,1.52
2023-03-24T14:53:41.556Z,0.98
2023-03-24T14:55:43.692Z,1.10
2023-03-24T14:57:49.212Z,1.38
2023-03-24T15:00:19.936Z,1.55
2023-03-24T15:02:24.220Z,1.23
2023-03-24T15:04:26.298Z,0.85
2023-03-24T15:06:27.947Z,0.80
2023-03-24T15:08:29.646Z,0.93
2023-03-24T15:10:37.779Z,0.98
2023-03-24T15:12:47.197Z,1.08
2023-03-24T15:14:49.130Z,1.27
2023-03-24T15:17:07.381Z,1.00
2023-03-24T15:19:16.112Z,1.05
2023-03-24T15:21:32.609Z,1.10
2023-03-24T15:23:34.334Z,1.67
2023-03-24T15:25:41.519Z,1.13
2023-03-24T15:27:51.073Z,1.10
2023-03-24T15:29:59.316Z,1.40
2023-03-24T15:32:01.192Z,1.08
2023-03-24T15:34:29.125Z,0.85
2023-03-24T15:36:38.146Z,1.05
2023-03-24T15:38:45.693Z,1.15
2023-03-24T15:41:20.929Z,0.70
2023-03-24T15:43:22.712Z,1.40
2023-03-24T15:45:31.560Z,2.47
2023-03-24T15:47:38.067Z,1.30
2023-03-24T15:50:00.794Z,1.50
2023-03-24T15:52:22.661Z,1.20
2023-03-24T15:54:29.613Z,1.73
2023-03-24T15:56:34.396Z,1.20
2023-03-24T15:58:50.683Z,1.40
2023-03-24T16:00:53.789Z,1.33
2023-03-24T16:02:58.105Z,2.03
2023-03-24T16:07:23.913Z,1.20
2023-03-24T16:09:37.257Z,0.88
2023-03-24T16:11:39.018Z,1.00
2023-03-24T16:13:42.784Z,0.80
2023-03-24T16:15:48.017Z,1.80
2023-03-24T16:17:49.826Z,1.15
2023-03-24T16:19:51.619Z,0.90
2023-03-24T16:21:54.925Z,0.90
2023-03-24T16:23:58.248Z,1.33
2023-03-24T16:26:00.045Z,1.35
2023-03-24T16:28:01.819Z,0.85
2023-03-24T16:30:21.894Z,1.35
2023-03-24T16:32:23.746Z,1.00
2023-03-24T16:34:25.670Z,1.50
2023-03-24T16:36:27.975Z,1.02
2023-03-24T16:38:29.839Z,1.65
2023-03-24T16:40:36.958Z,2.95
2023-03-24T16:42:38.630Z,1.50
2023-03-24T16:44:40.382Z,1.95
2023-03-24T16:46:43.375Z,1.10
2023-03-24T16:48:47.004Z,1.30
2023-03-24T16:50:53.479Z,1.23
2023-03-24T16:52:55.583Z,0.90
2023-03-24T16:54:57.276Z,1.33
2023-03-24T16:56:58.958Z,1.40
2023-03-24T16:59:00.911Z,1.00
2023-03-24T17:01:02.827Z,1.10
2023-03-24T17:03:06.860Z,1.65
2023-03-24T17:05:24.457Z,0.93
2023-03-24T17:07:27.054Z,1.20
2023-03-24T17:09:30.779Z,1.00
2023-03-24T17:11:38.100Z,1.27
2023-03-24T17:13:39.780Z,0.80
2023-03-24T17:15:41.459Z,1.23
2023-03-24T17:17:43.154Z,1.20
2023-03-24T17:19:44.925Z,1.00
2023-03-24T17:22:02.269Z,1.10
2023-03-24T17:24:04.722Z,1.23
2023-03-24T17:26:06.816Z,1.00
2023-03-24T17:28:16.465Z,1.23
2023-03-24T17:30:23.344Z,1.17
2023-03-24T17:32:29.987Z,0.98
2023-03-24T17:34:32.286Z,1.38
2023-03-24T17:36:49.326Z,0.82
2023-03-24T17:38:51.763Z,2.20
2023-03-24T17:41:00.927Z,2.72
2023-03-24T17:43:05.509Z,1.30
2023-03-24T17:45:09.310Z,0.90
2023-03-24T17:47:11.012Z,1.08
2023-03-24T17:49:12.880Z,1.63
2023-03-24T17:51:14.641Z,1.60
2023-03-24T17:53:17.290Z,1.10
2023-03-24T17:55:40.487Z,1.02
2023-03-24T17:57:44.814Z,1.33
2023-03-24T17:59:46.678Z,1.25
2023-03-24T18:01:48.330Z,1.48
2023-03-24T18:03:50.568Z,1.25
2023-03-24T18:05:52.584Z,2.20
2023-03-24T18:07:54.351Z,1.13
2023-03-24T18:09:55.986Z,1.08
2023-03-24T18:11:58.628Z,1.27
2023-03-24T18:14:00.367Z,2.10
2023-03-24T18:16:13.230Z,1.65
2023-03-24T18:18:19.829Z,1.60
2023-03-24T18:20:21.795Z,1.63
2023-03-24T18:22:23.629Z,1.20
2023-03-24T18:24:25.885Z,1.42
2023-03-24T18:26:28.010Z,1.70
2023-03-24T18:28:30.148Z,1.42
2023-03-24T18:30:32.319Z,1.30
2023-03-24T18:32:36.025Z,1.70
2023-03-24T18:34:39.033Z,1.10
2023-03-24T18:36:41.365Z,1.75
2023-03-24T18:38:43.672Z,1.02
2023-03-24T18:40:45.417Z,1.13
2023-03-24T18:42:47.224Z,1.15
2023-03-24T18:44:48.928Z,1.00
2023-03-24T18:46:50.879Z,1.05
2023-03-24T18:48:53.353Z,1.98
2023-03-24T18:50:55.307Z,0.90
2023-03-24T18:52:56.992Z,1.52
2023-03-24T18:54:59.491Z,1.10
2023-03-24T18:57:02.217Z,1.00
2023-03-24T18:59:04.045Z,0.80
2023-03-24T19:01:09.220Z,0.73
2023-03-24T19:03:11.181Z,0.77
2023-03-24T19:05:14.261Z,0.82
2023-03-24T19:07:24.283Z,1.10
2023-03-24T19:09:26.554Z,1.42
2023-03-24T19:11:28.440Z,1.20
2023-03-24T19:13:30.787Z,1.10
2023-03-24T19:15:32.902Z,1.10
2023-03-24T19:17:34.710Z,1.25
2023-03-24T19:19:36.458Z,1.98
2023-03-24T19:21:40.461Z,1.70
2023-03-24T19:23:46.996Z,1.52
2023-03-24T19:25:49.066Z,1.38
2023-03-24T19:27:51.512Z,1.38
2023-03-24T19:29:53.192Z,0.90
2023-03-24T19:31:55.005Z,1.70
2023-03-24T19:33:57.224Z,1.48
2023-03-24T19:35:58.958Z,1.63
2023-03-24T19:38:02.077Z,1.58
2023-03-24T19:40:15.685Z,1.25
2023-03-24T19:42:17.355Z,1.67
2023-03-24T19:44:19.195Z,1.38
2023-03-24T19:46:21.248Z,1.50
2023-03-24T19:48:23.235Z,1.40
2023-03-24T19:50:25.343Z,1.65
2023-03-24T19:52:27.112Z,1.27
2023-03-24T19:54:28.775Z,2.55
2023-03-24T19:56:31.107Z,2.03
2023-03-24T19:58:32.844Z,2.20
2023-03-24T20:00:35.049Z,3.38
2023-03-24T20:02:37.848Z,2.70
2023-03-24T20:04:39.793Z,2.03
2023-03-24T20:06:43.827Z,2.22
2023-03-24T20:08:45.637Z,1.23
2023-03-24T20:10:47.350Z,1.40
2023-03-24T20:12:49.132Z,1.33
2023-03-24T20:14:50.819Z,0.95
2023-03-24T20:16:52.622Z,1.40
2023-03-24T20:18:54.332Z,1.00
2023-03-24T20:20:56.748Z,1.00
2023-03-24T20:22:58.578Z,0.80
2023-03-24T20:25:00.542Z,1.40
2023-03-24T20:27:02.235Z,1.45
2023-03-24T20:29:04.577Z,1.65
2023-03-24T20:31:06.641Z,1.40
2023-03-24T20:33:08.634Z,1.02
2023-03-24T20:35:10.736Z,1.30
2023-03-24T20:37:12.479Z,1.27
2023-03-24T20:39:14.526Z,1.88
2023-03-24T20:41:18.764Z,1.98
2023-03-24T20:43:20.741Z,1.15
2023-03-24T20:45:22.374Z,1.98
2023-03-24T20:47:24.206Z,1.50
2023-03-24T20:49:26.039Z,1.40
2023-03-24T20:51:28.450Z,2.38
2023-03-24T20:53:33.031Z,2.08
2023-03-24T20:55:34.664Z,1.98
2023-03-24T20:57:36.405Z,1.65
2023-03-24T20:59:38.156Z,1.90
2023-03-24T21:01:42.192Z,2.08
2023-03-24T21:03:43.945Z,2.35
2023-03-24T21:05:45.741Z,2.20
2023-03-24T21:07:48.247Z,1.10
2023-03-24T21:09:49.900Z,0.80
2023-03-24T21:11:51.800Z,1.10
2023-03-24T21:13:53.515Z,1.52
2023-03-24T21:15:55.254Z,1.35
2023-03-24T21:17:57.018Z,1.10
2023-03-24T21:20:06.499Z,1.00
2023-03-24T21:22:14.698Z,1.00
2023-03-24T21:24:17.757Z,0.98
2023-03-24T21:26:19.550Z,1.10
2023-03-24T21:28:21.251Z,1.13
2023-03-24T21:30:23.827Z,1.67
2023-03-24T21:32:25.521Z,1.33
2023-03-24T21:34:27.232Z,1.23
2023-03-24T21:36:31.841Z,1.25
2023-03-24T21:38:33.680Z,1.85
2023-03-24T21:40:35.745Z,1.35
2023-03-24T21:42:37.417Z,1.50
2023-03-24T21:44:39.820Z,1.30
2023-03-24T21:46:43.089Z,1.65
2023-03-24T21:48:50.346Z,1.48
2023-03-24T21:50:53.285Z,1.58
2023-03-24T21:52:55.548Z,1.00
2023-03-24T21:55:00.946Z,1.10
2023-03-24T21:57:04.115Z,1.40
2023-03-24T21:59:06.215Z,1.13
2023-03-24T22:01:08.956Z,1.30
2023-03-24T22:03:10.859Z,1.00
2023-03-24T22:05:14.013Z,1.20
2023-03-24T22:07:18.610Z,1.52
2023-03-24T22:09:20.334Z,2.97
2023-03-24T22:11:22.046Z,1.20
2023-03-24T22:13:25.589Z,1.58
2023-03-24T22:15:27.614Z,1.70
2023-03-24T22:17:29.311Z,1.20
2023-03-24T22:19:31.047Z,1.70
2023-03-24T22:21:33.130Z,1.65
2023-03-24T22:23:38.149Z,1.20
2023-03-24T22:25:39.844Z,1.42
2023-03-24T22:27:41.702Z,2.03
2023-03-24T22:29:43.467Z,1.10
2023-03-24T22:31:45.565Z,1.65
2023-03-24T22:33:48.133Z,1.15
2023-03-24T22:35:54.828Z,1.10
2023-03-24T22:37:56.536Z,1.52
2023-03-24T22:39:58.206Z,1.50
2023-03-24T22:42:01.200Z,1.13
2023-03-24T22:44:03.533Z,1.08
2023-03-24T22:46:05.828Z,0.95
2023-03-24T22:48:07.610Z,0.93
2023-03-24T22:50:09.720Z,0.85
2023-03-24T22:52:11.719Z,1.48
2023-03-24T22:54:13.529Z,1.00
2023-03-24T22:56:16.068Z,1.63
2023-03-24T22:58:18.144Z,1.15
2023-03-24T23:00:20.992Z,1.00
2023-03-24T23:02:24.740Z,1.00
2023-03-24T23:04:26.795Z,1.42
2023-03-24T23:06:29.518Z,0.90
2023-03-24T23:08:35.053Z,1.30
2023-03-24T23:10:37.628Z,1.10
2023-03-24T23:12:40.184Z,1.00
2023-03-24T23:14:42.518Z,0.93
2023-03-24T23:16:44.996Z,1.02
2023-03-24T23:18:47.354Z,1.17
2023-03-24T23:20:49.168Z,1.10
2023-03-24T23:22:51.307Z,1.23
2023-03-24T23:25:00.549Z,1.65
2023-03-24T23:27:04.766Z,1.25
2023-03-24T23:29:06.529Z,1.08
2023-03-24T23:31:20.169Z,1.30
2023-03-24T23:33:24.859Z,1.35
2023-03-24T23:35:26.642Z,1.30
2023-03-24T23:37:32.636Z,1.02
2023-03-24T23:39:36.859Z,1.45
2023-03-24T23:41:38.614Z,1.00
2023-03-24T23:43:41.044Z,2.08
2023-03-24T23:45:45.422Z,0.98
2023-03-24T23:47:49.544Z,1.73
2023-03-24T23:49:51.880Z,1.63
2023-03-24T23:51:53.553Z,3.10
2023-03-24T23:53:55.221Z,1.52
2023-03-24T23:56:01.096Z,1.85
2023-03-24T23:58:03.323Z,1.98
